sensor_id;sensor_type;location;lat;lon;timestamp;temperature;humidity
27647;DHT22;42229;51.230;6.240;2024-03-25T00:01:41;7.50;99.90
27647;DHT22;42229;51.230;6.240;2024-03-25T00:04:07;7.50;99.90
27647;DHT22;42229;51.230;6.240;2024-03-25T00:06:33;7.50;99.90
27647;DHT22;42229;51.230;6.240;2024-03-25T00:09:00;7.50;99.90
27647;DHT22;42229;51.230;6.240;2024-03-25T00:11:27;7.50;99.90
27647;DHT22;42229;51.230;6.240;2024-03-25T00:13:53;7.40;99.90
27647;DHT22;42229;51.230;6.240;2024-03-25T00:16:19;7.40;99.90
27647;DHT22;42229;51.230;6.240;2024-03-25T00:18:45;7.40;99.90
27647;DHT22;42229;51.230;6.240;2024-03-25T00:21:12;7.40;99.90
27647;DHT22;42229;51.230;6.240;2024-03-25T00:23:38;7.40;99.90
27647;DHT22;42229;51.230;6.240;2024-03-25T00:26:04;7.40;99.90
27647;DHT22;42229;51.230;6.240;2024-03-25T00:28:31;7.40;99.90
27647;DHT22;42229;51.230;6.240;2024-03-25T00:30:57;7.30;99.90
27647;DHT22;42229;51.230;6.240;2024-03-25T00:33:23;7.30;99.90
27647;DHT22;42229;51.230;6.240;2024-03-25T00:35:50;7.40;99.90
27647;DHT22;42229;51.230;6.240;2024-03-25T00:38:16;7.40;99.90
27647;DHT22;42229;51.230;6.240;2024-03-25T00:40:42;7.40;99.90
27647;DHT22;42229;51.230;6.240;2024-03-25T00:43:08;7.40;99.90
27647;DHT22;42229;51.230;6.240;2024-03-25T00:45:35;7.40;99.90
27647;DHT22;42229;51.230;6.240;2024-03-25T00:48:01;7.50;99.90
27647;DHT22;42229;51.230;6.240;2024-03-25T00:50:27;7.50;99.90
27647;DHT22;42229;51.230;6.240;2024-03-25T00:52:53;7.50;99.90
27647;DHT22;42229;51.230;6.240;2024-03-25T00:55:20;7.50;99.90
27647;DHT22;42229;51.230;6.240;2024-03-25T00:57:46;7.40;99.90
27647;DHT22;42229;51.230;6.240;2024-03-25T01:00:14;7.40;99.90
27647;DHT22;42229;51.230;6.240;2024-03-25T01:02:41;7.30;99.90
27647;DHT22;42229;51.230;6.240;2024-03-25T01:05:08;7.20;99.90
27647;DHT22;42229;51.230;6.240;2024-03-25T01:07:35;7.20;99.90
27647;DHT22;42229;51.230;6.240;2024-03-25T01:10:01;7.10;99.90
27647;DHT22;42229;51.230;6.240;2024-03-25T01:12:28;7.00;99.90
27647;DHT22;42229;51.230;6.240;2024-03-25T01:14:54;7.00;99.90
27647;DHT22;42229;51.230;6.240;2024-03-25T01:17:20;6.90;99.90
27647;DHT22;42229;51.230;6.240;2024-03-25T01:19:46;6.80;99.90
27647;DHT22;42229;51.230;6.240;2024-03-25T01:22:12;6.70;99.90
27647;DHT22;42229;51.230;6.240;2024-03-25T01:24:39;6.70;99.90
27647;DHT22;42229;51.230;6.240;2024-03-25T01:27:06;6.60;99.90
27647;DHT22;42229;51.230;6.240;2024-03-25T01:29:32;6.60;99.90
27647;DHT22;42229;51.230;6.240;2024-03-25T01:31:58;6.60;99.90
27647;DHT22;42229;51.230;6.240;2024-03-25T01:34:25;6.60;99.90
27647;DHT22;42229;51.230;6.240;2024-03-25T01:36:51;6.60;99.90
27647;DHT22;42229;51.230;6.240;2024-03-25T01:39:20;6.60;99.90
27647;DHT22;42229;51.230;6.240;2024-03-25T01:41:47;6.60;99.90
27647;DHT22;42229;51.230;6.240;2024-03-25T01:44:13;6.60;99.90
27647;DHT22;42229;51.230;6.240;2024-03-25T01:46:39;6.60;99.90
27647;DHT22;42229;51.230;6.240;2024-03-25T01:49:06;6.60;99.90
27647;DHT22;42229;51.230;6.240;2024-03-25T01:51:32;6.60;99.90
27647;DHT22;42229;51.230;6.240;2024-03-25T01:53:59;6.60;99.90
27647;DHT22;42229;51.230;6.240;2024-03-25T01:56:25;6.70;99.90
27647;DHT22;42229;51.230;6.240;2024-03-25T01:58:52;6.60;99.90
27647;DHT22;42229;51.230;6.240;2024-03-25T02:01:18;6.60;99.90
27647;DHT22;42229;51.230;6.240;2024-03-25T02:03:45;6.60;99.90
27647;DHT22;42229;51.230;6.240;2024-03-25T02:06:13;6.60;99.90
27647;DHT22;42229;51.230;6.240;2024-03-25T02:08:41;6.60;99.90
27647;DHT22;42229;51.230;6.240;2024-03-25T02:11:08;6.60;99.90
27647;DHT22;42229;51.230;6.240;2024-03-25T02:13:36;6.60;99.90
27647;DHT22;42229;51.230;6.240;2024-03-25T02:16:03;6.60;99.90
27647;DHT22;42229;51.230;6.240;2024-03-25T02:18:30;6.60;99.90
27647;DHT22;42229;51.230;6.240;2024-03-25T02:20:59;6.60;99.90
27647;DHT22;42229;51.230;6.240;2024-03-25T02:23:25;6.60;99.90
27647;DHT22;42229;51.230;6.240;2024-03-25T02:25:52;6.50;99.90
27647;DHT22;42229;51.230;6.240;2024-03-25T02:28:19;6.50;99.90
27647;DHT22;42229;51.230;6.240;2024-03-25T02:30:45;6.50;99.90
27647;DHT22;42229;51.230;6.240;2024-03-25T02:33:12;6.50;99.90
27647;DHT22;42229;51.230;6.240;2024-03-25T02:35:39;6.50;99.90
27647;DHT22;42229;51.230;6.240;2024-03-25T02:38:06;6.50;99.90
27647;DHT22;42229;51.230;6.240;2024-03-25T02:40:34;6.60;99.90
27647;DHT22;42229;51.230;6.240;2024-03-25T02:43:00;6.60;99.90
27647;DHT22;42229;51.230;6.240;2024-03-25T02:45:27;6.60;99.90
27647;DHT22;42229;51.230;6.240;2024-03-25T02:47:53;6.60;99.90
27647;DHT22;42229;51.230;6.240;2024-03-25T02:50:19;6.60;99.90
27647;DHT22;42229;51.230;6.240;2024-03-25T02:52:45;6.60;99.90
27647;DHT22;42229;51.230;6.240;2024-03-25T02:55:11;6.50;99.90
27647;DHT22;42229;51.230;6.240;2024-03-25T02:57:38;6.50;99.90
27647;DHT22;42229;51.230;6.240;2024-03-25T03:00:04;6.50;99.90
27647;DHT22;42229;51.230;6.240;2024-03-25T03:02:31;6.50;99.90
27647;DHT22;42229;51.230;6.240;2024-03-25T03:04:57;6.50;99.90
27647;DHT22;42229;51.230;6.240;2024-03-25T03:07:23;6.50;99.90
27647;DHT22;42229;51.230;6.240;2024-03-25T03:09:49;6.50;99.90
27647;DHT22;42229;51.230;6.240;2024-03-25T03:12:16;6.50;99.90
27647;DHT22;42229;51.230;6.240;2024-03-25T03:14:42;6.40;99.90
27647;DHT22;42229;51.230;6.240;2024-03-25T03:17:08;6.40;99.90
27647;DHT22;42229;51.230;6.240;2024-03-25T03:19:35;6.30;99.90
27647;DHT22;42229;51.230;6.240;2024-03-25T03:22:02;6.30;99.90
27647;DHT22;42229;51.230;6.240;2024-03-25T03:24:28;6.30;99.90
27647;DHT22;42229;51.230;6.240;2024-03-25T03:26:54;6.20;99.90
27647;DHT22;42229;51.230;6.240;2024-03-25T03:29:21;6.10;99.90
27647;DHT22;42229;51.230;6.240;2024-03-25T03:31:47;6.10;99.90
27647;DHT22;42229;51.230;6.240;2024-03-25T03:34:13;6.00;99.90
27647;DHT22;42229;51.230;6.240;2024-03-25T03:36:39;6.00;99.90
27647;DHT22;42229;51.230;6.240;2024-03-25T03:39:06;5.90;99.90
27647;DHT22;42229;51.230;6.240;2024-03-25T03:41:35;5.80;99.90
27647;DHT22;42229;51.230;6.240;2024-03-25T03:44:02;5.80;99.90
27647;DHT22;42229;51.230;6.240;2024-03-25T03:46:28;5.70;99.90
27647;DHT22;42229;51.230;6.240;2024-03-25T03:48:54;5.60;99.90
27647;DHT22;42229;51.230;6.240;2024-03-25T03:51:21;5.60;99.90
27647;DHT22;42229;51.230;6.240;2024-03-25T03:53:47;5.50;99.90
27647;DHT22;42229;51.230;6.240;2024-03-25T03:56:13;5.40;99.90
27647;DHT22;42229;51.230;6.240;2024-03-25T03:58:39;5.40;99.90
27647;DHT22;42229;51.230;6.240;2024-03-25T04:01:13;5.30;99.90
27647;DHT22;42229;51.230;6.240;2024-03-25T04:03:48;5.20;99.90
27647;DHT22;42229;51.230;6.240;2024-03-25T04:06:15;5.20;99.90
27647;DHT22;42229;51.230;6.240;2024-03-25T04:08:41;5.10;99.90
27647;DHT22;42229;51.230;6.240;2024-03-25T04:11:07;5.00;99.90
27647;DHT22;42229;51.230;6.240;2024-03-25T04:13:34;5.00;99.90
27647;DHT22;42229;51.230;6.240;2024-03-25T04:16:01;4.90;99.90
27647;DHT22;42229;51.230;6.240;2024-03-25T04:18:31;4.80;99.90
27647;DHT22;42229;51.230;6.240;2024-03-25T04:20:58;4.80;99.90
27647;DHT22;42229;51.230;6.240;2024-03-25T04:23:25;4.80;99.90
27647;DHT22;42229;51.230;6.240;2024-03-25T04:25:51;4.70;99.90
27647;DHT22;42229;51.230;6.240;2024-03-25T04:28:18;4.70;99.90
27647;DHT22;42229;51.230;6.240;2024-03-25T04:30:50;4.70;99.90
27647;DHT22;42229;51.230;6.240;2024-03-25T04:33:16;4.70;99.90
27647;DHT22;42229;51.230;6.240;2024-03-25T04:35:43;4.70;99.90
27647;DHT22;42229;51.230;6.240;2024-03-25T04:38:09;4.70;99.90
27647;DHT22;42229;51.230;6.240;2024-03-25T04:40:35;4.70;99.90
27647;DHT22;42229;51.230;6.240;2024-03-25T04:43:02;4.70;99.90
27647;DHT22;42229;51.230;6.240;2024-03-25T04:45:28;4.70;99.90
27647;DHT22;42229;51.230;6.240;2024-03-25T04:47:54;4.70;99.90
27647;DHT22;42229;51.230;6.240;2024-03-25T04:50:21;4.60;99.90
27647;DHT22;42229;51.230;6.240;2024-03-25T04:52:47;4.60;99.90
27647;DHT22;42229;51.230;6.240;2024-03-25T04:55:13;4.50;99.90
27647;DHT22;42229;51.230;6.240;2024-03-25T04:57:40;4.50;99.90
27647;DHT22;42229;51.230;6.240;2024-03-25T05:00:06;4.50;99.90
27647;DHT22;42229;51.230;6.240;2024-03-25T05:02:33;4.40;99.90
27647;DHT22;42229;51.230;6.240;2024-03-25T05:04:59;4.40;99.90
27647;DHT22;42229;51.230;6.240;2024-03-25T05:07:29;4.30;99.90
27647;DHT22;42229;51.230;6.240;2024-03-25T05:17:01;4.20;99.90
27647;DHT22;42229;51.230;6.240;2024-03-25T05:19:30;4.10;99.90
27647;DHT22;42229;51.230;6.240;2024-03-25T05:22:08;4.10;99.90
27647;DHT22;42229;51.230;6.240;2024-03-25T05:28:13;4.00;99.90
27647;DHT22;42229;51.230;6.240;2024-03-25T05:30:39;4.00;99.90
27647;DHT22;42229;51.230;6.240;2024-03-25T05:33:05;3.90;99.90
27647;DHT22;42229;51.230;6.240;2024-03-25T05:35:32;3.90;99.90
27647;DHT22;42229;51.230;6.240;2024-03-25T05:38:02;3.90;99.90
27647;DHT22;42229;51.230;6.240;2024-03-25T05:40:29;3.90;99.90
27647;DHT22;42229;51.230;6.240;2024-03-25T05:42:55;3.80;99.90
27647;DHT22;42229;51.230;6.240;2024-03-25T05:45:21;3.80;99.90
27647;DHT22;42229;51.230;6.240;2024-03-25T05:47:49;3.80;99.90
27647;DHT22;42229;51.230;6.240;2024-03-25T05:50:16;3.80;99.90
27647;DHT22;42229;51.230;6.240;2024-03-25T05:52:45;3.80;99.90
27647;DHT22;42229;51.230;6.240;2024-03-25T05:55:11;3.80;99.90
27647;DHT22;42229;51.230;6.240;2024-03-25T05:57:38;3.80;99.90
27647;DHT22;42229;51.230;6.240;2024-03-25T06:00:04;3.70;99.90
27647;DHT22;42229;51.230;6.240;2024-03-25T06:02:37;3.70;99.90
27647;DHT22;42229;51.230;6.240;2024-03-25T06:05:04;3.80;99.90
27647;DHT22;42229;51.230;6.240;2024-03-25T06:07:31;3.70;99.90
27647;DHT22;42229;51.230;6.240;2024-03-25T06:09:57;3.70;99.90
27647;DHT22;42229;51.230;6.240;2024-03-25T06:12:23;3.70;99.90
27647;DHT22;42229;51.230;6.240;2024-03-25T06:14:50;3.70;99.90
27647;DHT22;42229;51.230;6.240;2024-03-25T06:17:16;3.80;99.90
27647;DHT22;42229;51.230;6.240;2024-03-25T06:19:42;3.80;99.90
27647;DHT22;42229;51.230;6.240;2024-03-25T06:22:08;3.80;99.90
27647;DHT22;42229;51.230;6.240;2024-03-25T06:24:35;3.90;99.90
27647;DHT22;42229;51.230;6.240;2024-03-25T06:27:01;4.00;99.90
27647;DHT22;42229;51.230;6.240;2024-03-25T06:29:27;4.00;99.90
27647;DHT22;42229;51.230;6.240;2024-03-25T06:31:53;4.10;99.90
27647;DHT22;42229;51.230;6.240;2024-03-25T06:34:38;4.20;99.90
27647;DHT22;42229;51.230;6.240;2024-03-25T06:37:05;4.30;99.90
27647;DHT22;42229;51.230;6.240;2024-03-25T06:39:31;4.30;99.90
27647;DHT22;42229;51.230;6.240;2024-03-25T06:41:57;4.40;99.90
27647;DHT22;42229;51.230;6.240;2024-03-25T06:44:24;4.50;99.90
27647;DHT22;42229;51.230;6.240;2024-03-25T06:46:50;4.60;99.90
27647;DHT22;42229;51.230;6.240;2024-03-25T06:49:17;4.60;99.90
27647;DHT22;42229;51.230;6.240;2024-03-25T06:51:43;4.70;99.90
27647;DHT22;42229;51.230;6.240;2024-03-25T06:54:09;4.70;99.90
27647;DHT22;42229;51.230;6.240;2024-03-25T06:56:35;4.80;99.90
27647;DHT22;42229;51.230;6.240;2024-03-25T06:59:01;4.90;99.90
27647;DHT22;42229;51.230;6.240;2024-03-25T07:01:28;5.00;99.90
27647;DHT22;42229;51.230;6.240;2024-03-25T07:03:54;5.10;99.90
27647;DHT22;42229;51.230;6.240;2024-03-25T07:06:20;5.20;99.90
27647;DHT22;42229;51.230;6.240;2024-03-25T07:08:47;5.30;99.90
27647;DHT22;42229;51.230;6.240;2024-03-25T07:11:13;5.40;99.90
27647;DHT22;42229;51.230;6.240;2024-03-25T07:13:39;5.60;99.90
27647;DHT22;42229;51.230;6.240;2024-03-25T07:16:07;5.70;99.90
27647;DHT22;42229;51.230;6.240;2024-03-25T07:18:34;5.80;99.90
27647;DHT22;42229;51.230;6.240;2024-03-25T07:21:00;6.00;99.90
27647;DHT22;42229;51.230;6.240;2024-03-25T07:23:26;6.10;99.90
27647;DHT22;42229;51.230;6.240;2024-03-25T07:25:52;6.30;99.90
27647;DHT22;42229;51.230;6.240;2024-03-25T07:28:19;6.40;99.90
27647;DHT22;42229;51.230;6.240;2024-03-25T07:30:45;6.50;99.90
27647;DHT22;42229;51.230;6.240;2024-03-25T07:33:11;6.60;99.90
27647;DHT22;42229;51.230;6.240;2024-03-25T07:35:37;6.80;99.90
27647;DHT22;42229;51.230;6.240;2024-03-25T07:38:03;6.90;99.90
27647;DHT22;42229;51.230;6.240;2024-03-25T07:40:30;7.00;99.90
27647;DHT22;42229;51.230;6.240;2024-03-25T07:42:56;7.10;99.90
27647;DHT22;42229;51.230;6.240;2024-03-25T07:45:22;7.30;99.90
27647;DHT22;42229;51.230;6.240;2024-03-25T07:47:49;7.40;99.90
27647;DHT22;42229;51.230;6.240;2024-03-25T07:50:15;7.50;99.90
27647;DHT22;42229;51.230;6.240;2024-03-25T07:52:41;7.60;99.90
27647;DHT22;42229;51.230;6.240;2024-03-25T07:55:08;7.80;99.90
27647;DHT22;42229;51.230;6.240;2024-03-25T07:57:35;7.90;99.90
27647;DHT22;42229;51.230;6.240;2024-03-25T08:00:02;8.00;99.90
27647;DHT22;42229;51.230;6.240;2024-03-25T08:02:38;8.10;99.90
27647;DHT22;42229;51.230;6.240;2024-03-25T08:05:04;8.20;99.90
27647;DHT22;42229;51.230;6.240;2024-03-25T08:07:32;8.40;99.90
27647;DHT22;42229;51.230;6.240;2024-03-25T08:09:59;8.40;99.90
27647;DHT22;42229;51.230;6.240;2024-03-25T08:12:25;8.50;99.90
27647;DHT22;42229;51.230;6.240;2024-03-25T08:14:51;8.60;99.90
27647;DHT22;42229;51.230;6.240;2024-03-25T08:17:17;8.60;99.90
27647;DHT22;42229;51.230;6.240;2024-03-25T08:19:44;8.80;99.90
27647;DHT22;42229;51.230;6.240;2024-03-25T08:22:11;8.80;99.90
27647;DHT22;42229;51.230;6.240;2024-03-25T08:24:37;8.90;99.90
27647;DHT22;42229;51.230;6.240;2024-03-25T08:27:04;9.00;99.90
27647;DHT22;42229;51.230;6.240;2024-03-25T08:29:30;9.10;99.90
27647;DHT22;42229;51.230;6.240;2024-03-25T08:31:56;9.20;99.90
27647;DHT22;42229;51.230;6.240;2024-03-25T08:34:22;9.30;99.90
27647;DHT22;42229;51.230;6.240;2024-03-25T08:36:49;9.30;99.90
27647;DHT22;42229;51.230;6.240;2024-03-25T08:39:15;9.40;99.90
27647;DHT22;42229;51.230;6.240;2024-03-25T08:41:41;9.50;99.90
27647;DHT22;42229;51.230;6.240;2024-03-25T08:44:07;9.50;99.90
27647;DHT22;42229;51.230;6.240;2024-03-25T08:46:33;9.60;99.90
27647;DHT22;42229;51.230;6.240;2024-03-25T08:49:01;9.60;99.90
27647;DHT22;42229;51.230;6.240;2024-03-25T08:51:27;9.70;99.90
27647;DHT22;42229;51.230;6.240;2024-03-25T08:53:54;9.80;99.90
27647;DHT22;42229;51.230;6.240;2024-03-25T08:56:20;9.90;99.90
27647;DHT22;42229;51.230;6.240;2024-03-25T08:58:46;10.00;99.90
27647;DHT22;42229;51.230;6.240;2024-03-25T09:01:12;10.10;99.90
27647;DHT22;42229;51.230;6.240;2024-03-25T09:03:40;10.20;99.90
27647;DHT22;42229;51.230;6.240;2024-03-25T09:06:06;10.30;99.90
27647;DHT22;42229;51.230;6.240;2024-03-25T09:08:33;10.40;99.90
27647;DHT22;42229;51.230;6.240;2024-03-25T09:11:19;10.50;99.90
27647;DHT22;42229;51.230;6.240;2024-03-25T09:13:45;10.60;99.90
27647;DHT22;42229;51.230;6.240;2024-03-25T09:16:12;10.70;99.90
27647;DHT22;42229;51.230;6.240;2024-03-25T09:18:38;10.70;99.90
27647;DHT22;42229;51.230;6.240;2024-03-25T09:21:04;10.80;99.90
27647;DHT22;42229;51.230;6.240;2024-03-25T09:23:31;10.90;99.90
27647;DHT22;42229;51.230;6.240;2024-03-25T09:25:58;10.90;99.90
27647;DHT22;42229;51.230;6.240;2024-03-25T09:28:24;10.90;99.90
27647;DHT22;42229;51.230;6.240;2024-03-25T09:30:51;10.90;99.90
27647;DHT22;42229;51.230;6.240;2024-03-25T09:33:17;10.90;99.90
27647;DHT22;42229;51.230;6.240;2024-03-25T09:35:43;10.90;99.90
27647;DHT22;42229;51.230;6.240;2024-03-25T09:38:09;10.80;99.90
27647;DHT22;42229;51.230;6.240;2024-03-25T09:40:36;10.80;99.90
27647;DHT22;42229;51.230;6.240;2024-03-25T09:43:06;10.80;99.90
27647;DHT22;42229;51.230;6.240;2024-03-25T09:45:38;10.80;99.90
27647;DHT22;42229;51.230;6.240;2024-03-25T09:48:06;10.80;99.90
27647;DHT22;42229;51.230;6.240;2024-03-25T09:50:33;10.80;99.90
27647;DHT22;42229;51.230;6.240;2024-03-25T09:53:00;10.80;99.90
27647;DHT22;42229;51.230;6.240;2024-03-25T09:55:26;10.90;99.90
27647;DHT22;42229;51.230;6.240;2024-03-25T09:57:52;11.00;99.90
27647;DHT22;42229;51.230;6.240;2024-03-25T10:00:19;11.00;99.90
27647;DHT22;42229;51.230;6.240;2024-03-25T10:02:45;11.20;99.90
27647;DHT22;42229;51.230;6.240;2024-03-25T10:05:12;11.30;99.90
27647;DHT22;42229;51.230;6.240;2024-03-25T10:07:38;11.30;99.90
27647;DHT22;42229;51.230;6.240;2024-03-25T10:10:05;11.40;99.90
27647;DHT22;42229;51.230;6.240;2024-03-25T10:12:32;11.50;99.90
27647;DHT22;42229;51.230;6.240;2024-03-25T10:14:58;11.60;99.90
27647;DHT22;42229;51.230;6.240;2024-03-25T10:17:25;11.60;99.90
27647;DHT22;42229;51.230;6.240;2024-03-25T10:19:53;11.60;99.90
27647;DHT22;42229;51.230;6.240;2024-03-25T10:22:19;11.60;99.90
27647;DHT22;42229;51.230;6.240;2024-03-25T10:24:47;11.70;99.90
27647;DHT22;42229;51.230;6.240;2024-03-25T10:27:17;11.70;99.90
27647;DHT22;42229;51.230;6.240;2024-03-25T10:29:55;11.70;99.90
27647;DHT22;42229;51.230;6.240;2024-03-25T10:32:21;11.80;99.90
27647;DHT22;42229;51.230;6.240;2024-03-25T10:34:50;11.90;99.90
27647;DHT22;42229;51.230;6.240;2024-03-25T10:37:17;12.00;99.90
27647;DHT22;42229;51.230;6.240;2024-03-25T10:39:49;12.10;99.90
27647;DHT22;42229;51.230;6.240;2024-03-25T10:42:19;12.30;99.90
27647;DHT22;42229;51.230;6.240;2024-03-25T10:44:49;12.60;99.90
27647;DHT22;42229;51.230;6.240;2024-03-25T10:47:23;12.80;99.90
27647;DHT22;42229;51.230;6.240;2024-03-25T10:49:55;13.10;99.90
27647;DHT22;42229;51.230;6.240;2024-03-25T10:52:23;13.40;99.90
27647;DHT22;42229;51.230;6.240;2024-03-25T10:54:50;13.70;99.90
27647;DHT22;42229;51.230;6.240;2024-03-25T10:57:17;13.80;99.90
27647;DHT22;42229;51.230;6.240;2024-03-25T10:59:44;13.90;99.90
27647;DHT22;42229;51.230;6.240;2024-03-25T11:02:11;14.00;99.90
27647;DHT22;42229;51.230;6.240;2024-03-25T11:04:38;14.10;99.90
27647;DHT22;42229;51.230;6.240;2024-03-25T11:07:11;14.20;99.90
27647;DHT22;42229;51.230;6.240;2024-03-25T11:09:41;14.40;99.90
27647;DHT22;42229;51.230;6.240;2024-03-25T11:12:11;14.60;99.90
27647;DHT22;42229;51.230;6.240;2024-03-25T11:14:38;14.70;99.90
27647;DHT22;42229;51.230;6.240;2024-03-25T11:17:15;14.80;99.90
27647;DHT22;42229;51.230;6.240;2024-03-25T11:19:42;14.90;99.90
27647;DHT22;42229;51.230;6.240;2024-03-25T11:22:11;14.80;99.70
27647;DHT22;42229;51.230;6.240;2024-03-25T11:24:37;14.80;99.90
27647;DHT22;42229;51.230;6.240;2024-03-25T11:27:07;14.80;99.90
27647;DHT22;42229;51.230;6.240;2024-03-25T11:29:34;14.90;99.90
27647;DHT22;42229;51.230;6.240;2024-03-25T11:32:04;15.00;99.90
27647;DHT22;42229;51.230;6.240;2024-03-25T11:34:30;15.10;99.90
27647;DHT22;42229;51.230;6.240;2024-03-25T11:36:57;15.30;99.90
27647;DHT22;42229;51.230;6.240;2024-03-25T11:39:26;15.50;99.90
27647;DHT22;42229;51.230;6.240;2024-03-25T11:41:54;15.90;99.90
27647;DHT22;42229;51.230;6.240;2024-03-25T11:44:20;16.10;99.90
27647;DHT22;42229;51.230;6.240;2024-03-25T11:46:49;16.40;99.90
27647;DHT22;42229;51.230;6.240;2024-03-25T11:49:16;16.70;99.90
27647;DHT22;42229;51.230;6.240;2024-03-25T11:51:45;17.00;99.90
27647;DHT22;42229;51.230;6.240;2024-03-25T11:54:12;17.20;99.00
27647;DHT22;42229;51.230;6.240;2024-03-25T11:56:40;17.50;99.90
27647;DHT22;42229;51.230;6.240;2024-03-25T11:59:08;17.80;99.90
27647;DHT22;42229;51.230;6.240;2024-03-25T12:01:36;18.20;99.90
27647;DHT22;42229;51.230;6.240;2024-03-25T12:04:10;18.40;99.90
27647;DHT22;42229;51.230;6.240;2024-03-25T12:06:37;18.70;97.60
27647;DHT22;42229;51.230;6.240;2024-03-25T12:09:03;19.00;99.70
27647;DHT22;42229;51.230;6.240;2024-03-25T12:11:48;19.30;99.90
27647;DHT22;42229;51.230;6.240;2024-03-25T12:14:14;19.60;98.80
27647;DHT22;42229;51.230;6.240;2024-03-25T12:16:42;19.90;98.20
27647;DHT22;42229;51.230;6.240;2024-03-25T12:19:08;20.30;99.90
27647;DHT22;42229;51.230;6.240;2024-03-25T12:21:34;20.60;95.90
27647;DHT22;42229;51.230;6.240;2024-03-25T12:24:00;21.00;95.70
27647;DHT22;42229;51.230;6.240;2024-03-25T12:26:27;21.40;95.70
27647;DHT22;42229;51.230;6.240;2024-03-25T12:28:53;21.70;94.90
27647;DHT22;42229;51.230;6.240;2024-03-25T12:31:19;22.10;98.80
27647;DHT22;42229;51.230;6.240;2024-03-25T12:33:49;22.40;95.60
27647;DHT22;42229;51.230;6.240;2024-03-25T12:36:16;22.60;81.70
27647;DHT22;42229;51.230;6.240;2024-03-25T12:38:42;22.60;72.30
27647;DHT22;42229;51.230;6.240;2024-03-25T12:41:12;22.60;89.10
27647;DHT22;42229;51.230;6.240;2024-03-25T12:43:42;22.60;88.10
27647;DHT22;42229;51.230;6.240;2024-03-25T12:46:09;22.70;92.60
27647;DHT22;42229;51.230;6.240;2024-03-25T12:48:36;23.00;93.50
27647;DHT22;42229;51.230;6.240;2024-03-25T12:51:02;23.30;95.90
27647;DHT22;42229;51.230;6.240;2024-03-25T12:53:29;23.60;95.70
27647;DHT22;42229;51.230;6.240;2024-03-25T12:55:55;23.90;97.60
27647;DHT22;42229;51.230;6.240;2024-03-25T12:58:21;24.20;99.90
27647;DHT22;42229;51.230;6.240;2024-03-25T13:00:48;24.30;86.70
27647;DHT22;42229;51.230;6.240;2024-03-25T13:03:14;24.50;98.30
27647;DHT22;42229;51.230;6.240;2024-03-25T13:05:42;24.50;99.90
27647;DHT22;42229;51.230;6.240;2024-03-25T13:08:09;24.60;99.90
27647;DHT22;42229;51.230;6.240;2024-03-25T13:10:35;24.60;92.50
27647;DHT22;42229;51.230;6.240;2024-03-25T13:13:01;24.60;91.40
27647;DHT22;42229;51.230;6.240;2024-03-25T13:15:28;24.60;93.50
27647;DHT22;42229;51.230;6.240;2024-03-25T13:17:54;24.70;80.50
27647;DHT22;42229;51.230;6.240;2024-03-25T13:20:20;24.70;77.30
27647;DHT22;42229;51.230;6.240;2024-03-25T13:22:48;24.80;89.00
27647;DHT22;42229;51.230;6.240;2024-03-25T13:25:15;24.80;92.20
27647;DHT22;42229;51.230;6.240;2024-03-25T13:27:41;24.90;81.50
27647;DHT22;42229;51.230;6.240;2024-03-25T13:30:07;24.90;81.50
27647;DHT22;42229;51.230;6.240;2024-03-25T13:32:34;25.00;79.80
27647;DHT22;42229;51.230;6.240;2024-03-25T13:35:01;25.00;80.30
27647;DHT22;42229;51.230;6.240;2024-03-25T13:37:27;25.00;71.30
27647;DHT22;42229;51.230;6.240;2024-03-25T13:39:53;25.10;84.70
27647;DHT22;42229;51.230;6.240;2024-03-25T13:42:19;25.10;96.70
27647;DHT22;42229;51.230;6.240;2024-03-25T13:44:46;25.10;90.10
27647;DHT22;42229;51.230;6.240;2024-03-25T13:47:12;25.20;87.90
27647;DHT22;42229;51.230;6.240;2024-03-25T13:49:38;25.30;99.30
27647;DHT22;42229;51.230;6.240;2024-03-25T13:52:05;25.50;99.90
27647;DHT22;42229;51.230;6.240;2024-03-25T13:54:31;25.50;94.60
27647;DHT22;42229;51.230;6.240;2024-03-25T13:56:57;25.60;90.00
27647;DHT22;42229;51.230;6.240;2024-03-25T13:59:23;25.60;81.10
27647;DHT22;42229;51.230;6.240;2024-03-25T14:01:49;25.40;71.60
27647;DHT22;42229;51.230;6.240;2024-03-25T14:04:17;25.40;74.20
27647;DHT22;42229;51.230;6.240;2024-03-25T14:06:44;25.30;85.50
27647;DHT22;42229;51.230;6.240;2024-03-25T14:09:22;25.30;94.30
27647;DHT22;42229;51.230;6.240;2024-03-25T14:11:51;25.30;73.40
27647;DHT22;42229;51.230;6.240;2024-03-25T14:14:17;25.30;67.90
27647;DHT22;42229;51.230;6.240;2024-03-25T14:16:44;25.20;79.10
27647;DHT22;42229;51.230;6.240;2024-03-25T14:19:10;25.20;73.20
27647;DHT22;42229;51.230;6.240;2024-03-25T14:21:36;25.10;76.30
27647;DHT22;42229;51.230;6.240;2024-03-25T14:24:04;25.10;91.20
27647;DHT22;42229;51.230;6.240;2024-03-25T14:26:31;25.10;83.10
27647;DHT22;42229;51.230;6.240;2024-03-25T14:28:57;25.00;69.40
27647;DHT22;42229;51.230;6.240;2024-03-25T14:31:26;25.00;81.10
27647;DHT22;42229;51.230;6.240;2024-03-25T14:33:52;25.00;75.90
27647;DHT22;42229;51.230;6.240;2024-03-25T14:36:18;25.00;92.80
27647;DHT22;42229;51.230;6.240;2024-03-25T14:38:44;24.90;74.00
27647;DHT22;42229;51.230;6.240;2024-03-25T14:41:11;24.80;71.60
27647;DHT22;42229;51.230;6.240;2024-03-25T14:43:37;24.50;59.90
27647;DHT22;42229;51.230;6.240;2024-03-25T14:46:04;24.30;73.00
27647;DHT22;42229;51.230;6.240;2024-03-25T14:48:30;24.10;90.80
27647;DHT22;42229;51.230;6.240;2024-03-25T14:50:56;23.80;86.70
27647;DHT22;42229;51.230;6.240;2024-03-25T14:53:22;23.60;68.90
27647;DHT22;42229;51.230;6.240;2024-03-25T14:55:49;23.40;81.40
27647;DHT22;42229;51.230;6.240;2024-03-25T14:58:15;23.40;73.70
27647;DHT22;42229;51.230;6.240;2024-03-25T15:00:41;23.30;76.70
27647;DHT22;42229;51.230;6.240;2024-03-25T15:03:07;23.30;94.10
27647;DHT22;42229;51.230;6.240;2024-03-25T15:05:33;23.30;88.40
27647;DHT22;42229;51.230;6.240;2024-03-25T15:08:00;23.30;67.90
27647;DHT22;42229;51.230;6.240;2024-03-25T15:10:26;23.20;66.70
27647;DHT22;42229;51.230;6.240;2024-03-25T15:12:53;23.10;80.10
27647;DHT22;42229;51.230;6.240;2024-03-25T15:15:20;22.80;65.90
27647;DHT22;42229;51.230;6.240;2024-03-25T15:17:46;22.70;88.20
27647;DHT22;42229;51.230;6.240;2024-03-25T15:20:12;22.50;75.50
27647;DHT22;42229;51.230;6.240;2024-03-25T15:22:38;22.40;83.90
27647;DHT22;42229;51.230;6.240;2024-03-25T15:25:08;22.40;86.00
27647;DHT22;42229;51.230;6.240;2024-03-25T15:27:36;22.40;86.00
27647;DHT22;42229;51.230;6.240;2024-03-25T15:30:05;22.40;78.90
27647;DHT22;42229;51.230;6.240;2024-03-25T15:32:32;22.50;90.20
27647;DHT22;42229;51.230;6.240;2024-03-25T15:34:58;22.70;94.10
27647;DHT22;42229;51.230;6.240;2024-03-25T15:37:25;22.80;94.10
27647;DHT22;42229;51.230;6.240;2024-03-25T15:39:51;22.90;94.90
27647;DHT22;42229;51.230;6.240;2024-03-25T15:42:17;23.00;91.60
27647;DHT22;42229;51.230;6.240;2024-03-25T15:44:45;23.20;85.60
27647;DHT22;42229;51.230;6.240;2024-03-25T15:47:11;23.20;91.60
27647;DHT22;42229;51.230;6.240;2024-03-25T15:49:37;23.30;74.60